createdAt,value
2023-04-29T00:00:41.870Z,54.31
2023-04-29T00:01:45.694Z,54.71
2023-04-29T00:02:49.567Z,54.48
2023-04-29T00:03:54.271Z,54.73
2023-04-29T00:04:58.563Z,55.28
2023-04-29T00:06:04.996Z,55.24
2023-04-29T00:07:09.565Z,55.29
2023-04-29T00:08:13.464Z,55.16
2023-04-29T00:09:17.327Z,55.78
2023-04-29T00:10:25.192Z,55.22
2023-04-29T00:11:29.184Z,55.33
2023-04-29T00:12:34.009Z,55.48
2023-04-29T00:13:41.672Z,55.42
2023-04-29T00:14:46.037Z,55.48
2023-04-29T00:15:50.693Z,55.41
2023-04-29T00:16:54.609Z,55.52
2023-04-29T00:18:00.175Z,55.82
2023-04-29T00:19:05.783Z,56.27
2023-04-29T00:20:12.760Z,56.49
2023-04-29T00:21:16.530Z,56.20
2023-04-29T00:22:22.209Z,56.25
2023-04-29T00:23:27.127Z,57.28
2023-04-29T00:24:31.308Z,57.23
2023-04-29T00:25:35.720Z,57.17
2023-04-29T00:26:41.497Z,56.96
2023-04-29T00:27:45.852Z,58.11
2023-04-29T00:28:50.000Z,57.68
2023-04-29T00:29:54.623Z,57.43
2023-04-29T00:30:58.670Z,57.33
2023-04-29T00:32:03.671Z,57.24
2023-04-29T00:33:10.963Z,57.19
2023-04-29T00:34:15.132Z,56.90
2023-04-29T00:35:19.500Z,56.71
2023-04-29T00:36:23.394Z,56.61
2023-04-29T00:37:27.273Z,57.46
2023-04-29T00:38:31.521Z,57.17
2023-04-29T00:39:35.521Z,57.80
2023-04-29T00:40:39.653Z,57.86
2023-04-29T00:41:43.568Z,57.46
2023-04-29T00:42:47.598Z,58.06
2023-04-29T00:43:52.736Z,58.04
2023-04-29T00:44:56.994Z,57.80
2023-04-29T00:46:01.178Z,57.75
2023-04-29T00:47:07.759Z,58.17
2023-04-29T00:48:11.450Z,57.44
2023-04-29T00:49:16.125Z,58.19
2023-04-29T00:50:22.123Z,58.52
2023-04-29T00:51:27.248Z,58.63
2023-04-29T00:52:34.503Z,59.15
2023-04-29T00:53:39.896Z,58.78
2023-04-29T00:54:45.205Z,59.20
2023-04-29T00:55:52.063Z,59.68
2023-04-29T00:56:59.477Z,59.78
2023-04-29T00:58:07.746Z,59.52
2023-04-29T00:59:15.567Z,59.70
2023-04-29T01:00:20.646Z,59.61
2023-04-29T01:01:25.006Z,60.06
2023-04-29T01:02:30.238Z,60.64
2023-04-29T01:03:34.529Z,60.80
2023-04-29T01:04:38.689Z,60.71
2023-04-29T01:05:47.445Z,59.89
2023-04-29T01:07:53.804Z,61.25
2023-04-29T01:09:48.041Z,60.72
2023-04-29T01:11:30.546Z,61.77
2023-04-29T01:12:47.231Z,61.62
2023-04-29T01:14:09.306Z,61.67
2023-04-29T01:15:23.503Z,62.09
2023-04-29T01:16:53.645Z,62.77
2023-04-29T01:18:26.203Z,62.80
2023-04-29T01:19:50.933Z,62.77
2023-04-29T01:20:57.099Z,61.90
2023-04-29T01:22:01.059Z,62.16
2023-04-29T01:23:06.358Z,61.66
2023-04-29T01:24:10.169Z,61.63
2023-04-29T01:25:14.522Z,61.39
2023-04-29T01:26:19.512Z,61.72
2023-04-29T01:27:35.486Z,61.64
2023-04-29T01:28:57.355Z,61.25
2023-04-29T01:30:19.549Z,62.35
2023-04-29T01:31:32.834Z,62.17
2023-04-29T01:32:51.898Z,62.93
2023-04-29T01:34:02.039Z,62.07
2023-04-29T01:35:55.705Z,62.96
2023-04-29T01:37:40.233Z,64.21
2023-04-29T01:39:58.577Z,64.54
2023-04-29T01:41:31.983Z,64.17
2023-04-29T01:43:07.450Z,63.61
2023-04-29T01:44:24.140Z,64.06
2023-04-29T01:45:29.681Z,64.15
2023-04-29T01:46:35.348Z,63.37
2023-04-29T01:47:41.088Z,63.92
2023-04-29T01:48:44.873Z,63.51
2023-04-29T01:49:50.209Z,63.93
2023-04-29T01:50:54.048Z,64.14
2023-04-29T01:51:57.977Z,63.49
2023-04-29T01:53:14.032Z,63.58
2023-04-29T01:54:18.620Z,63.83
2023-04-29T01:55:23.482Z,63.83
2023-04-29T01:56:27.376Z,64.81
2023-04-29T01:57:31.542Z,65.00
2023-04-29T01:58:36.236Z,65.17
2023-04-29T01:59:40.813Z,64.55
2023-04-29T02:00:47.695Z,64.37
2023-04-29T02:01:52.100Z,64.60
2023-04-29T02:03:04.119Z,64.57
2023-04-29T02:04:13.343Z,64.68
2023-04-29T02:05:17.462Z,64.02
2023-04-29T02:06:21.681Z,64.18
2023-04-29T02:07:25.464Z,63.45
2023-04-29T02:08:29.791Z,64.02
2023-04-29T02:09:33.542Z,63.18
2023-04-29T02:10:37.569Z,63.33
2023-04-29T02:11:41.899Z,63.42
2023-04-29T02:12:46.624Z,63.79
2023-04-29T02:13:50.884Z,63.46
2023-04-29T02:14:55.294Z,63.33
2023-04-29T02:16:09.629Z,63.06
2023-04-29T02:17:14.678Z,63.33
2023-04-29T02:18:19.264Z,63.53
2023-04-29T02:19:23.418Z,63.33
2023-04-29T02:20:27.697Z,63.28
2023-04-29T02:21:32.261Z,63.64
2023-04-29T02:22:36.152Z,63.31
2023-04-29T02:23:43.232Z,63.52
2023-04-29T02:24:48.302Z,63.85
2023-04-29T02:25:52.469Z,63.82
2023-04-29T02:26:56.485Z,63.53
2023-04-29T02:28:00.275Z,63.83
2023-04-29T02:29:09.425Z,63.51
2023-04-29T02:30:13.695Z,63.96
2023-04-29T02:31:17.835Z,63.84
2023-04-29T02:32:21.595Z,63.57
2023-04-29T02:33:25.863Z,63.99
2023-04-29T02:34:33.525Z,63.69
2023-04-29T02:35:38.707Z,64.38
2023-04-29T02:36:50.533Z,64.29
2023-04-29T02:38:03.287Z,64.59
2023-04-29T02:39:12.662Z,64.27
2023-04-29T02:40:19.642Z,64.08
2023-04-29T02:41:28.256Z,64.06
2023-04-29T02:42:35.618Z,64.43
2023-04-29T02:43:41.263Z,64.43
2023-04-29T02:44:48.160Z,64.70
2023-04-29T02:45:59.336Z,64.81
2023-04-29T02:47:08.840Z,64.62
2023-04-29T02:48:14.869Z,63.97
2023-04-29T02:49:19.382Z,63.82
2023-04-29T02:50:36.523Z,63.92
2023-04-29T02:51:41.780Z,63.58
2023-04-29T02:52:50.675Z,63.76
2023-04-29T02:54:04.860Z,64.11
2023-04-29T02:55:10.625Z,64.07
2023-04-29T02:56:18.076Z,64.40
2023-04-29T02:57:22.068Z,63.97
2023-04-29T02:58:30.580Z,64.49
2023-04-29T02:59:38.292Z,64.58
2023-04-29T03:00:42.984Z,64.08
2023-04-29T03:01:50.792Z,64.28
2023-04-29T03:02:56.624Z,64.65
2023-04-29T03:04:02.193Z,64.78
2023-04-29T03:05:19.061Z,65.41
2023-04-29T03:06:26.247Z,65.53
2023-04-29T03:07:31.202Z,64.87
2023-04-29T03:08:38.564Z,64.87
2023-04-29T03:09:44.914Z,64.88
2023-04-29T03:10:49.280Z,65.00
2023-04-29T03:11:53.746Z,64.51
2023-04-29T03:13:17.006Z,64.84
2023-04-29T03:14:24.769Z,65.04
2023-04-29T03:15:36.015Z,64.87
2023-04-29T03:16:43.886Z,65.19
2023-04-29T03:17:49.623Z,65.15
2023-04-29T03:18:59.818Z,64.95
2023-04-29T03:20:09.294Z,65.88
2023-04-29T03:21:23.284Z,67.04
2023-04-29T03:22:27.375Z,66.84
2023-04-29T03:23:32.071Z,66.59
2023-04-29T03:24:46.724Z,66.17
2023-04-29T03:25:53.476Z,66.08
2023-04-29T03:27:12.256Z,67.47
2023-04-29T03:28:29.490Z,67.04
2023-04-29T03:29:37.706Z,67.13
2023-04-29T03:30:57.302Z,66.98
2023-04-29T03:32:14.882Z,67.48
2023-04-29T03:33:18.708Z,67.34
2023-04-29T03:34:22.838Z,67.88
2023-04-29T03:35:26.506Z,67.82
2023-04-29T03:36:30.730Z,67.78
2023-04-29T03:37:34.908Z,67.84
2023-04-29T03:38:38.600Z,68.10
2023-04-29T03:39:43.209Z,67.59
2023-04-29T03:40:47.422Z,67.74
2023-04-29T03:41:51.514Z,67.59
2023-04-29T03:42:55.516Z,68.11
2023-04-29T03:44:00.963Z,68.49
2023-04-29T03:45:42.827Z,68.21
2023-04-29T03:46:56.367Z,68.12
2023-04-29T03:48:01.130Z,67.89
2023-04-29T03:49:11.410Z,67.99
2023-04-29T03:50:17.526Z,67.35
2023-04-29T03:51:30.189Z,67.72
2023-04-29T03:52:38.890Z,67.77
2023-04-29T03:53:45.181Z,68.02
2023-04-29T03:54:50.270Z,68.64
2023-04-29T03:56:00.502Z,68.40
2023-04-29T03:57:05.201Z,68.15
2023-04-29T03:58:24.265Z,68.20
2023-04-29T03:59:34.528Z,68.52
2023-04-29T04:00:40.341Z,68.66
2023-04-29T04:01:49.193Z,68.31
2023-04-29T04:03:48.016Z,69.99
2023-04-29T04:04:33.540Z,70.11
2023-04-29T04:05:42.817Z,69.48
2023-04-29T04:06:51.923Z,69.42
2023-04-29T04:08:09.042Z,69.29
2023-04-29T04:09:27.876Z,68.84
2023-04-29T04:10:39.350Z,69.57
2023-04-29T04:11:49.089Z,69.09
2023-04-29T04:13:02.519Z,70.00
2023-04-29T04:14:13.195Z,70.17
2023-04-29T04:15:17.264Z,69.83
2023-04-29T04:16:24.912Z,70.66
2023-04-29T04:17:30.675Z,71.33
2023-04-29T04:18:35.078Z,72.98
2023-04-29T04:19:40.766Z,71.74
2023-04-29T04:20:49.038Z,72.21
2023-04-29T04:21:56.906Z,71.71
2023-04-29T04:23:01.470Z,71.46
2023-04-29T04:24:17.235Z,72.36
2023-04-29T04:25:29.992Z,73.31
2023-04-29T04:26:42.518Z,73.33
2023-04-29T04:27:51.602Z,72.76
2023-04-29T04:28:59.231Z,72.15
2023-04-29T04:30:12.117Z,72.09
2023-04-29T04:31:20.361Z,71.72
2023-04-29T04:32:25.436Z,71.79
2023-04-29T04:33:33.252Z,72.96
2023-04-29T04:34:42.323Z,73.76
2023-04-29T04:35:47.237Z,74.25
2023-04-29T04:36:52.116Z,73.33
2023-04-29T04:37:59.576Z,72.96
2023-04-29T04:39:04.776Z,72.82
2023-04-29T04:40:12.285Z,73.33
2023-04-29T04:41:17.499Z,73.07
2023-04-29T04:42:24.134Z,73.23
2023-04-29T04:43:29.238Z,73.47
2023-04-29T04:44:34.457Z,73.61
2023-04-29T04:45:42.385Z,75.03
2023-04-29T04:46:47.872Z,74.56
2023-04-29T04:47:55.791Z,74.22
2023-04-29T04:49:06.402Z,73.58
2023-04-29T04:50:12.427Z,73.32
2023-04-29T04:51:21.618Z,73.61
2023-04-29T04:52:25.652Z,73.79
2023-04-29T04:53:36.031Z,74.00
2023-04-29T04:54:50.758Z,73.73
2023-04-29T04:55:55.949Z,74.88
2023-04-29T04:56:59.705Z,74.34
2023-04-29T04:58:14.611Z,74.45
2023-04-29T04:59:27.826Z,74.96
2023-04-29T05:00:39.300Z,74.41
2023-04-29T05:01:44.571Z,73.71
2023-04-29T05:02:51.916Z,74.27
2023-04-29T05:04:01.351Z,74.50
2023-04-29T05:05:09.518Z,74.57
2023-04-29T05:06:14.299Z,74.87
2023-04-29T05:07:18.998Z,75.14
2023-04-29T05:08:23.745Z,75.35
2023-04-29T05:09:32.351Z,75.27
2023-04-29T05:10:38.800Z,75.06
2023-04-29T05:11:48.077Z,76.97
2023-04-29T05:12:54.088Z,76.38
2023-04-29T05:13:58.523Z,76.14
2023-04-29T05:15:04.806Z,75.84
2023-04-29T05:16:09.586Z,76.32
2023-04-29T05:17:15.353Z,76.73
2023-04-29T05:18:23.895Z,77.83
2023-04-29T05:19:29.334Z,76.49
2023-04-29T05:20:33.776Z,76.79
2023-04-29T05:21:39.904Z,76.35
2023-04-29T05:22:46.322Z,76.22
2023-04-29T05:23:52.501Z,76.48
2023-04-29T05:25:03.672Z,76.62
2023-04-29T05:26:08.599Z,75.98
2023-04-29T05:27:15.908Z,76.60
2023-04-29T05:28:32.771Z,76.68
2023-04-29T05:29:39.034Z,76.92
2023-04-29T05:30:45.651Z,77.08
2023-04-29T05:31:52.777Z,77.48
2023-04-29T05:32:59.832Z,77.42
2023-04-29T05:34:07.074Z,77.93
2023-04-29T05:35:13.603Z,77.42
2023-04-29T05:36:17.449Z,77.44
2023-04-29T05:37:21.169Z,78.63
2023-04-29T05:38:29.101Z,77.96
2023-04-29T05:39:33.022Z,76.91
2023-04-29T05:40:36.933Z,78.53
2023-04-29T05:41:40.682Z,78.55
2023-04-29T05:42:44.713Z,79.09
2023-04-29T05:43:48.670Z,78.71
2023-04-29T05:44:52.384Z,77.87
2023-04-29T05:45:56.521Z,77.56
2023-04-29T05:47:01.742Z,77.57
2023-04-29T05:48:12.655Z,77.85
2023-04-29T05:49:17.595Z,77.37
2023-04-29T05:50:24.796Z,78.13
2023-04-29T05:51:34.096Z,77.25
2023-04-29T05:52:40.653Z,77.33
2023-04-29T05:53:46.046Z,76.41
2023-04-29T05:54:54.698Z,76.64
2023-04-29T05:56:07.800Z,76.60
2023-04-29T05:57:21.280Z,78.24
2023-04-29T05:58:28.949Z,77.60
2023-04-29T05:59:39.551Z,76.91
2023-04-29T06:00:59.995Z,76.78
2023-04-29T06:02:10.056Z,76.14
2023-04-29T06:03:27.278Z,76.76
2023-04-29T06:04:36.790Z,76.47
2023-04-29T06:05:51.442Z,76.36
2023-04-29T06:07:00.925Z,76.28
2023-04-29T06:08:34.856Z,75.64
2023-04-29T06:09:46.181Z,75.08
2023-04-29T06:10:55.089Z,75.23
2023-04-29T06:11:59.450Z,75.38
2023-04-29T06:13:31.385Z,75.48
2023-04-29T06:14:50.512Z,75.65
2023-04-29T06:15:55.288Z,75.75
2023-04-29T06:17:13.692Z,75.79
2023-04-29T06:18:47.092Z,75.57
2023-04-29T06:19:53.567Z,76.84
2023-04-29T06:21:02.511Z,76.23
2023-04-29T06:22:12.642Z,75.94
2023-04-29T06:23:18.440Z,75.90
2023-04-29T06:24:36.403Z,76.78
2023-04-29T06:25:52.737Z,77.66
2023-04-29T06:26:58.982Z,77.47
2023-04-29T06:28:14.824Z,76.94
2023-04-29T06:29:30.840Z,77.24
2023-04-29T06:30:35.698Z,77.05
2023-04-29T06:31:39.757Z,77.35
2023-04-29T06:32:46.705Z,76.87
2023-04-29T06:33:56.158Z,77.56
2023-04-29T06:35:04.906Z,77.47
2023-04-29T06:36:17.881Z,79.35
2023-04-29T06:37:38.290Z,77.98
2023-04-29T06:38:42.750Z,78.07
2023-04-29T06:39:48.981Z,78.06
2023-04-29T06:40:59.600Z,77.52
2023-04-29T06:42:03.891Z,77.77
2023-04-29T06:43:18.479Z,80.94
2023-04-29T06:44:32.311Z,78.64
2023-04-29T06:45:37.302Z,77.73
2023-04-29T06:46:44.048Z,76.94
2023-04-29T06:47:50.484Z,76.81
2023-04-29T06:48:58.997Z,76.26
2023-04-29T06:50:10.071Z,75.90
2023-04-29T06:51:29.495Z,76.05
2023-04-29T06:52:38.807Z,76.61
2023-04-29T06:53:47.417Z,77.34
2023-04-29T06:55:02.053Z,76.59
2023-04-29T06:56:23.989Z,76.12
2023-04-29T06:57:29.765Z,75.54
2023-04-29T06:58:34.854Z,75.63
2023-04-29T06:59:44.292Z,75.79
2023-04-29T07:00:55.041Z,75.12
2023-04-29T07:01:59.992Z,74.62
2023-04-29T07:03:17.255Z,74.41
2023-04-29T07:04:33.553Z,73.96
2023-04-29T07:05:48.211Z,73.89
2023-04-29T07:06:57.127Z,73.57
2023-04-29T07:08:27.633Z,73.13
2023-04-29T07:09:38.914Z,73.40
2023-04-29T07:10:44.528Z,73.23
2023-04-29T07:11:59.573Z,73.04
2023-04-29T07:13:09.525Z,73.41
2023-04-29T07:14:30.569Z,73.07
2023-04-29T07:15:37.789Z,72.73
2023-04-29T07:16:54.388Z,72.52
2023-04-29T07:18:15.079Z,72.50
2023-04-29T07:19:21.618Z,72.14
2023-04-29T07:20:28.496Z,72.14
2023-04-29T07:21:34.655Z,71.76
2023-04-29T07:22:42.554Z,71.57
2023-04-29T07:23:49.817Z,71.31
2023-04-29T07:24:57.266Z,71.42
2023-04-29T07:26:33.887Z,70.66
2023-04-29T07:27:41.338Z,70.53
2023-04-29T07:29:03.456Z,69.74
2023-04-29T07:30:22.097Z,68.85
2023-04-29T07:31:38.973Z,67.77
2023-04-29T07:32:43.117Z,66.70
2023-04-29T07:33:48.971Z,66.01
2023-04-29T07:34:53.304Z,64.54
2023-04-29T07:35:57.914Z,64.34
2023-04-29T07:37:01.695Z,63.75
2023-04-29T07:38:05.643Z,62.86
2023-04-29T07:39:09.448Z,62.36
2023-04-29T07:40:13.506Z,61.78
2023-04-29T07:41:17.453Z,59.69
2023-04-29T07:42:22.135Z,58.88
2023-04-29T07:43:26.214Z,59.52
2023-04-29T07:44:29.900Z,58.65
2023-04-29T07:45:35.321Z,57.02
2023-04-29T07:46:48.347Z,54.22
2023-04-29T07:47:52.779Z,53.74
2023-04-29T07:49:03.061Z,53.74
2023-04-29T07:50:13.246Z,51.46
2023-04-29T07:51:22.089Z,51.91
2023-04-29T07:52:30.430Z,50.26
2023-04-29T07:53:37.037Z,48.48
2023-04-29T07:54:48.062Z,48.68
2023-04-29T07:55:55.656Z,46.33
2023-04-29T07:57:02.589Z,45.96
2023-04-29T07:58:15.226Z,45.36
2023-04-29T07:59:23.460Z,44.60
2023-04-29T08:01:52.415Z,44.95
2023-04-29T08:03:00.098Z,44.18
2023-04-29T08:04:18.870Z,43.45
2023-04-29T08:05:25.621Z,43.01
2023-04-29T08:06:39.758Z,43.68
2023-04-29T08:07:47.673Z,42.98
2023-04-29T08:08:53.049Z,44.37
2023-04-29T08:09:58.281Z,43.85
2023-04-29T08:11:10.812Z,44.34
2023-04-29T08:12:18.128Z,42.33
2023-04-29T08:13:27.263Z,42.93
2023-04-29T08:14:31.786Z,43.50
2023-04-29T08:15:35.693Z,43.95
2023-04-29T08:16:40.680Z,43.69
2023-04-29T08:17:45.361Z,43.92
2023-04-29T08:18:49.225Z,43.28
2023-04-29T08:20:01.514Z,43.32
2023-04-29T08:21:06.870Z,42.89
2023-04-29T08:22:17.812Z,42.99
2023-04-29T08:23:25.792Z,42.90
2023-04-29T08:24:34.185Z,42.79
2023-04-29T08:25:43.791Z,42.46
2023-04-29T08:26:50.247Z,42.67
2023-04-29T08:27:54.004Z,43.08
2023-04-29T08:28:57.942Z,43.10
2023-04-29T08:30:01.742Z,43.37
2023-04-29T08:31:11.294Z,43.62
2023-04-29T08:32:15.271Z,43.99
2023-04-29T08:33:21.872Z,43.86
2023-04-29T08:34:27.062Z,43.62
2023-04-29T08:35:31.409Z,44.03
2023-04-29T08:36:37.178Z,44.07
2023-04-29T08:37:41.259Z,44.17
2023-04-29T08:38:45.679Z,44.31
2023-04-29T08:39:49.715Z,44.57
2023-04-29T08:40:53.705Z,44.61
2023-04-29T08:41:59.299Z,44.54
2023-04-29T08:43:05.343Z,44.66
2023-04-29T08:44:09.453Z,44.64
2023-04-29T08:45:19.307Z,44.53
2023-04-29T08:46:27.207Z,44.42
2023-04-29T08:47:33.522Z,44.17
2023-04-29T08:48:42.568Z,44.29
2023-04-29T08:49:47.992Z,44.86
2023-04-29T08:50:52.071Z,44.90
2023-04-29T08:51:56.612Z,44.74
2023-04-29T08:53:00.590Z,44.79
2023-04-29T08:54:08.159Z,44.35
2023-04-29T08:55:12.098Z,44.52
2023-04-29T08:56:23.358Z,44.97
2023-04-29T08:57:31.095Z,45.03
2023-04-29T08:58:38.526Z,44.83
2023-04-29T08:59:43.689Z,44.38
2023-04-29T09:00:49.416Z,44.74
2023-04-29T09:01:56.578Z,44.68
2023-04-29T09:03:13.197Z,44.74
2023-04-29T09:04:27.034Z,44.93
2023-04-29T09:05:34.661Z,45.11
2023-04-29T09:06:38.656Z,45.18
2023-04-29T09:07:44.227Z,45.29
2023-04-29T09:08:51.335Z,45.20
2023-04-29T09:09:58.230Z,45.23
2023-04-29T09:11:02.986Z,45.41
2023-04-29T09:12:22.670Z,45.36
2023-04-29T09:13:32.046Z,45.45
2023-04-29T09:14:37.539Z,45.46
2023-04-29T09:15:42.828Z,45.28
2023-04-29T09:16:49.604Z,45.64
2023-04-29T09:17:53.977Z,45.63
2023-04-29T09:18:58.432Z,45.54
2023-04-29T09:20:02.543Z,44.92
2023-04-29T09:21:22.664Z,44.95
2023-04-29T09:22:26.844Z,45.25
2023-04-29T09:23:38.612Z,45.41
2023-04-29T09:24:43.885Z,45.25
2023-04-29T09:25:58.200Z,44.78
2023-04-29T09:27:06.712Z,44.57
2023-04-29T09:28:19.604Z,44.47
2023-04-29T09:29:24.394Z,44.43
2023-04-29T09:30:30.251Z,44.91
2023-04-29T09:31:34.087Z,44.54
2023-04-29T09:32:39.373Z,44.96
2023-04-29T09:33:59.117Z,44.16
2023-04-29T09:35:28.427Z,44.75
2023-04-29T09:36:46.986Z,44.30
2023-04-29T09:37:51.051Z,44.66
2023-04-29T09:38:56.023Z,44.62
2023-04-29T09:40:00.308Z,44.12
2023-04-29T09:41:12.285Z,44.17
2023-04-29T09:42:17.052Z,44.10
2023-04-29T09:43:21.677Z,43.92
2023-04-29T09:44:38.082Z,43.81
2023-04-29T09:45:48.149Z,43.84
2023-04-29T09:47:11.987Z,43.87
2023-04-29T09:48:17.327Z,43.89
2023-04-29T09:49:27.375Z,44.08
2023-04-29T09:50:32.748Z,44.46
2023-04-29T09:52:02.958Z,44.22
2023-04-29T09:53:09.616Z,44.52
2023-04-29T09:54:25.587Z,44.52
2023-04-29T09:55:30.232Z,44.60
2023-04-29T09:56:55.081Z,44.51
2023-04-29T09:58:00.796Z,44.82
2023-04-29T09:59:10.693Z,44.53
2023-04-29T10:00:15.406Z,44.42
2023-04-29T10:01:22.618Z,44.46
2023-04-29T10:02:28.636Z,44.60
2023-04-29T10:03:39.782Z,44.50
2023-04-29T10:04:47.274Z,44.27
2023-04-29T10:05:51.164Z,44.22
2023-04-29T10:06:56.971Z,44.09
2023-04-29T10:08:03.038Z,44.39
2023-04-29T10:09:14.963Z,44.26
2023-04-29T10:10:21.901Z,44.19
2023-04-29T10:11:27.293Z,44.10
2023-04-29T10:12:39.029Z,44.55
2023-04-29T10:13:44.406Z,45.35
2023-04-29T10:15:12.776Z,44.66
2023-04-29T10:16:30.930Z,44.49
2023-04-29T10:17:47.354Z,44.02
2023-04-29T10:18:56.518Z,43.65
2023-04-29T10:20:06.643Z,43.86
2023-04-29T10:21:14.102Z,43.79
2023-04-29T10:22:33.973Z,43.62
2023-04-29T10:23:38.788Z,43.50
2023-04-29T10:24:48.962Z,43.46
2023-04-29T10:25:56.051Z,43.46
2023-04-29T10:27:00.929Z,42.90
2023-04-29T10:28:09.988Z,43.32
2023-04-29T10:29:17.988Z,43.18
2023-04-29T10:30:22.947Z,42.78
2023-04-29T10:31:28.245Z,42.64
2023-04-29T10:32:49.755Z,44.28
2023-04-29T10:33:58.327Z,44.28
2023-04-29T10:35:04.088Z,44.32
2023-04-29T10:36:12.094Z,45.11
2023-04-29T10:37:20.850Z,44.61
2023-04-29T10:38:37.717Z,44.32
2023-04-29T10:40:11.912Z,44.45
2023-04-29T10:41:49.499Z,45.41
2023-04-29T10:42:58.583Z,45.40
2023-04-29T10:44:04.748Z,45.54
2023-04-29T10:45:27.687Z,45.50
2023-04-29T10:46:31.976Z,45.37
2023-04-29T10:47:36.458Z,45.32
2023-04-29T10:48:41.460Z,45.14
2023-04-29T10:50:05.251Z,45.60
2023-04-29T10:51:09.254Z,46.95
2023-04-29T10:52:17.546Z,46.33
2023-04-29T10:53:22.548Z,45.89
2023-04-29T10:54:30.020Z,45.80
2023-04-29T10:55:41.486Z,45.58
2023-04-29T10:56:57.419Z,45.56
2023-04-29T10:58:39.250Z,45.93
2023-04-29T10:59:43.827Z,45.83
2023-04-29T11:00:51.718Z,45.93
2023-04-29T11:01:59.811Z,45.37
2023-04-29T11:03:35.820Z,45.38
2023-04-29T11:05:15.687Z,45.05
2023-04-29T11:06:36.713Z,44.49
2023-04-29T11:07:41.911Z,44.40
2023-04-29T11:08:48.612Z,44.45
2023-04-29T11:09:58.428Z,44.43
2023-04-29T11:11:19.937Z,44.35
2023-04-29T11:12:24.562Z,44.49
2023-04-29T11:13:32.791Z,45.07
2023-04-29T11:14:41.085Z,44.74
2023-04-29T11:15:48.070Z,44.24
2023-04-29T11:17:10.712Z,44.29
2023-04-29T11:18:25.325Z,45.29
2023-04-29T11:19:41.736Z,45.16
2023-04-29T11:21:11.252Z,44.74
2023-04-29T11:22:36.057Z,44.26
2023-04-29T11:23:46.646Z,44.17
2023-04-29T11:25:03.108Z,44.39
2023-04-29T11:26:13.248Z,44.66
2023-04-29T11:27:21.049Z,44.91
2023-04-29T11:28:28.778Z,44.77
2023-04-29T11:29:33.776Z,44.64
2023-04-29T11:30:40.185Z,44.65
2023-04-29T11:31:44.848Z,44.77
2023-04-29T11:32:51.358Z,44.82
2023-04-29T11:33:55.465Z,44.78
2023-04-29T11:35:12.794Z,44.46
2023-04-29T11:36:19.487Z,44.61
2023-04-29T11:37:33.011Z,44.86
2023-04-29T11:38:42.632Z,45.43
2023-04-29T11:39:47.239Z,46.04
2023-04-29T11:40:52.129Z,45.77
2023-04-29T11:42:09.495Z,45.73
2023-04-29T11:43:19.106Z,45.87
2023-04-29T11:44:23.879Z,45.65
2023-04-29T11:45:28.311Z,46.06
2023-04-29T11:46:33.037Z,46.11
2023-04-29T11:47:37.468Z,46.47
2023-04-29T11:48:49.116Z,46.65
2023-04-29T11:49:52.762Z,46.76
2023-04-29T11:51:00.265Z,47.19
2023-04-29T11:52:04.878Z,46.75
2023-04-29T11:53:08.940Z,46.94
2023-04-29T11:54:12.990Z,47.57
2023-04-29T11:55:17.556Z,47.24
2023-04-29T11:56:28.210Z,47.23
2023-04-29T11:57:35.119Z,46.78
2023-04-29T11:59:09.040Z,46.61
2023-04-29T12:00:15.037Z,46.48
2023-04-29T12:01:22.082Z,46.58
2023-04-29T12:02:34.034Z,46.70
2023-04-29T12:03:38.841Z,46.66
2023-04-29T12:04:47.430Z,46.57
2023-04-29T12:05:56.544Z,46.70
2023-04-29T12:07:04.265Z,46.40
2023-04-29T12:08:08.260Z,46.27
2023-04-29T12:09:12.752Z,46.27
2023-04-29T12:10:17.004Z,45.97
2023-04-29T12:11:22.148Z,46.05
2023-04-29T12:12:31.768Z,46.06
2023-04-29T12:13:37.020Z,46.15
2023-04-29T12:14:42.635Z,46.32
2023-04-29T12:15:49.381Z,46.63
2023-04-29T12:16:54.464Z,46.61
2023-04-29T12:17:58.727Z,46.90
2023-04-29T12:19:11.843Z,47.30
2023-04-29T12:20:19.782Z,46.92
2023-04-29T12:21:23.649Z,46.99
2023-04-29T12:22:36.169Z,46.67
2023-04-29T12:23:42.255Z,46.78
2023-04-29T12:24:46.285Z,46.45
2023-04-29T12:25:56.648Z,46.62
2023-04-29T12:27:02.146Z,46.68
2023-04-29T12:28:16.132Z,47.24
2023-04-29T12:29:25.286Z,46.93
2023-04-29T12:30:29.262Z,46.70
2023-04-29T12:31:35.634Z,46.72
2023-04-29T12:32:40.102Z,47.05
2023-04-29T12:33:44.700Z,46.71
2023-04-29T12:34:50.710Z,46.50
2023-04-29T12:35:59.966Z,46.70
2023-04-29T12:37:03.982Z,46.58
2023-04-29T12:38:08.824Z,46.92
2023-04-29T12:39:12.673Z,46.64
2023-04-29T12:40:17.686Z,46.95
2023-04-29T12:41:45.306Z,47.16
2023-04-29T12:42:49.590Z,47.00
2023-04-29T12:43:55.722Z,46.73
2023-04-29T12:45:32.409Z,47.31
2023-04-29T12:46:41.788Z,47.12
2023-04-29T12:47:46.676Z,47.28
2023-04-29T12:48:50.945Z,47.19
2023-04-29T12:49:57.720Z,47.31
2023-04-29T12:51:05.647Z,46.99
2023-04-29T12:52:13.602Z,46.88
2023-04-29T12:53:17.424Z,46.59
2023-04-29T12:54:21.763Z,46.57
2023-04-29T12:55:27.023Z,46.59
2023-04-29T12:56:36.252Z,46.56
2023-04-29T12:57:40.515Z,46.55
2023-04-29T12:58:45.859Z,46.61
2023-04-29T12:59:49.959Z,46.34
2023-04-29T13:00:54.328Z,46.80
2023-04-29T13:01:59.093Z,47.26
2023-04-29T13:03:04.763Z,47.37
2023-04-29T13:04:11.097Z,47.20
2023-04-29T13:05:16.009Z,47.05
2023-04-29T13:06:20.831Z,46.96
2023-04-29T13:07:27.167Z,47.14
2023-04-29T13:08:31.521Z,47.26
2023-04-29T13:09:38.301Z,47.75
2023-04-29T13:10:43.442Z,47.56
2023-04-29T13:11:47.431Z,47.48
2023-04-29T13:12:52.347Z,47.25
2023-04-29T13:13:57.253Z,47.34
2023-04-29T13:15:01.236Z,47.15
2023-04-29T13:16:05.912Z,47.33
2023-04-29T13:17:11.072Z,47.29
2023-04-29T13:18:15.961Z,47.30
2023-04-29T13:19:38.200Z,47.39
2023-04-29T13:20:46.137Z,47.60
2023-04-29T13:21:51.960Z,48.17
2023-04-29T13:22:56.402Z,48.55
2023-04-29T13:24:00.183Z,48.39
2023-04-29T13:25:16.902Z,48.25
2023-04-29T13:26:21.114Z,48.43
2023-04-29T13:27:25.962Z,48.17
2023-04-29T13:28:29.983Z,48.02
2023-04-29T13:29:35.972Z,48.26
2023-04-29T13:30:39.886Z,48.34
2023-04-29T13:31:44.772Z,48.58
2023-04-29T13:32:55.218Z,48.42
2023-04-29T13:34:02.603Z,48.47
2023-04-29T13:35:13.291Z,48.20
2023-04-29T13:36:17.242Z,48.03
2023-04-29T13:37:21.547Z,48.20
2023-04-29T13:38:25.911Z,48.06
2023-04-29T13:39:30.312Z,48.36
2023-04-29T13:40:38.832Z,48.30
2023-04-29T13:41:48.542Z,48.41
2023-04-29T13:43:02.107Z,48.11
2023-04-29T13:45:23.772Z,48.61
2023-04-29T13:46:31.435Z,48.70
2023-04-29T13:47:55.018Z,48.76
2023-04-29T13:51:56.103Z,48.89
2023-04-29T13:53:19.317Z,49.36
2023-04-29T13:56:01.824Z,50.47
2023-04-29T13:57:05.027Z,50.31
2023-04-29T14:00:54.581Z,50.58
2023-04-29T14:03:58.929Z,50.73
2023-04-29T14:05:03.183Z,50.97
2023-04-29T14:06:12.099Z,50.99
2023-04-29T14:07:16.340Z,50.87
2023-04-29T14:08:20.359Z,51.06
2023-04-29T14:09:26.496Z,50.74
2023-04-29T14:10:33.993Z,50.97
2023-04-29T14:11:38.459Z,51.19
2023-04-29T14:12:42.531Z,51.44
2023-04-29T14:13:46.825Z,51.41
2023-04-29T14:14:50.708Z,51.56
2023-04-29T14:15:55.033Z,51.47
2023-04-29T14:16:59.173Z,51.64
2023-04-29T14:18:03.454Z,51.58
2023-04-29T14:19:16.690Z,51.48
2023-04-29T14:20:21.556Z,51.89
2023-04-29T14:21:26.752Z,52.37
2023-04-29T14:22:31.074Z,52.06
2023-04-29T14:23:36.579Z,52.19
2023-04-29T14:24:40.620Z,52.37
2023-04-29T14:25:45.533Z,52.77
2023-04-29T14:26:50.340Z,52.71
2023-04-29T14:27:58.111Z,52.44
2023-04-29T14:29:09.265Z,55.25
2023-04-29T14:30:13.763Z,53.95
2023-04-29T14:31:18.724Z,53.46
2023-04-29T14:32:23.173Z,53.24
2023-04-29T14:33:28.343Z,53.31
2023-04-29T14:34:34.965Z,53.54
2023-04-29T14:35:39.581Z,53.43
2023-04-29T14:36:46.552Z,53.77
2023-04-29T14:37:50.881Z,53.55
2023-04-29T14:38:55.209Z,53.55
2023-04-29T14:39:59.375Z,53.78
2023-04-29T14:41:03.698Z,53.83
2023-04-29T14:42:15.556Z,54.78
2023-04-29T14:43:20.300Z,54.68
2023-04-29T14:44:25.181Z,54.09
2023-04-29T14:45:29.919Z,55.10
2023-04-29T14:46:34.577Z,55.02
2023-04-29T14:47:55.563Z,55.46
2023-04-29T14:49:03.483Z,55.23
2023-04-29T14:50:14.113Z,56.05
2023-04-29T14:51:23.683Z,56.49
2023-04-29T14:52:28.074Z,55.73
2023-04-29T14:53:43.104Z,55.99
2023-04-29T14:54:49.705Z,56.14
2023-04-29T14:55:55.103Z,55.99
2023-04-29T14:57:00.915Z,55.93
2023-04-29T14:58:05.533Z,57.58
2023-04-29T14:59:12.117Z,56.83
2023-04-29T15:00:17.643Z,56.37